sensor_id;sensor_type;location;lat;lon;timestamp;pressure;altitude;pressure_sealevel;temperature;humidity
34081;BME280;20358;50.272;19.026;2024-03-06T00:02:12;98403.38;;;8.15;61.93
34081;BME280;20358;50.272;19.026;2024-03-06T00:05:21;98406.19;;;8.10;62.31
34081;BME280;20358;50.272;19.026;2024-03-06T00:08:27;98412.13;;;8.14;62.20
34081;BME280;20358;50.272;19.026;2024-03-06T00:11:34;98407.88;;;8.11;62.14
34081;BME280;20358;50.272;19.026;2024-03-06T00:14:40;98412.16;;;8.12;61.84
34081;BME280;20358;50.272;19.026;2024-03-06T00:17:47;98414.59;;;8.17;62.12
34081;BME280;20358;50.272;19.026;2024-03-06T00:20:55;98418.69;;;8.24;61.85
34081;BME280;20358;50.272;19.026;2024-03-06T00:24:02;98417.56;;;8.31;61.53
34081;BME280;20358;50.272;19.026;2024-03-06T00:27:09;98413.88;;;8.37;61.27
34081;BME280;20358;50.272;19.026;2024-03-06T00:30:15;98417.22;;;8.40;60.83
34081;BME280;20358;50.272;19.026;2024-03-06T00:33:23;98420.53;;;8.44;60.71
34081;BME280;20358;50.272;19.026;2024-03-06T00:36:32;98424.72;;;8.48;60.39
34081;BME280;20358;50.272;19.026;2024-03-06T00:39:38;98426.47;;;8.47;60.03
34081;BME280;20358;50.272;19.026;2024-03-06T00:42:45;98435.28;;;8.43;60.25
34081;BME280;20358;50.272;19.026;2024-03-06T00:45:51;98436.25;;;8.41;60.11
34081;BME280;20358;50.272;19.026;2024-03-06T00:48:57;98439.06;;;8.36;60.27
34081;BME280;20358;50.272;19.026;2024-03-06T00:52:06;98431.25;;;8.36;60.27
34081;BME280;20358;50.272;19.026;2024-03-06T00:55:13;98436.41;;;8.38;60.07
34081;BME280;20358;50.272;19.026;2024-03-06T00:58:18;98440.03;;;8.34;60.15
34081;BME280;20358;50.272;19.026;2024-03-06T01:01:25;98435.97;;;8.25;59.74
34081;BME280;20358;50.272;19.026;2024-03-06T01:04:31;98433.59;;;7.97;60.68
34081;BME280;20358;50.272;19.026;2024-03-06T01:07:41;98439.94;;;7.90;61.15
34081;BME280;20358;50.272;19.026;2024-03-06T01:10:47;98437.66;;;7.81;61.16
34081;BME280;20358;50.272;19.026;2024-03-06T01:13:54;98436.09;;;7.77;60.71
34081;BME280;20358;50.272;19.026;2024-03-06T01:17:00;98445.81;;;7.72;60.98
34081;BME280;20358;50.272;19.026;2024-03-06T01:20:08;98437.31;;;7.67;61.24
34081;BME280;20358;50.272;19.026;2024-03-06T01:23:17;98442.56;;;7.66;60.96
34081;BME280;20358;50.272;19.026;2024-03-06T01:26:24;98440.81;;;7.66;61.16
34081;BME280;20358;50.272;19.026;2024-03-06T01:29:30;98454.59;;;7.68;60.89
34081;BME280;20358;50.272;19.026;2024-03-06T01:32:36;98448.59;;;7.68;60.46
34081;BME280;20358;50.272;19.026;2024-03-06T01:35:42;98448.81;;;7.60;60.24
34081;BME280;20358;50.272;19.026;2024-03-06T01:38:51;98462.75;;;7.59;59.90
34081;BME280;20358;50.272;19.026;2024-03-06T01:41:57;98464.50;;;7.59;60.72
34081;BME280;20358;50.272;19.026;2024-03-06T01:45:06;98453.25;;;7.58;60.28
34081;BME280;20358;50.272;19.026;2024-03-06T01:48:13;98458.56;;;7.55;58.93
34081;BME280;20358;50.272;19.026;2024-03-06T01:51:20;98456.97;;;7.51;59.63
34081;BME280;20358;50.272;19.026;2024-03-06T01:54:30;98448.59;;;7.43;59.42
34081;BME280;20358;50.272;19.026;2024-03-06T01:57:39;98436.91;;;7.30;59.23
34081;BME280;20358;50.272;19.026;2024-03-06T02:00:46;98452.09;;;7.42;59.67
34081;BME280;20358;50.272;19.026;2024-03-06T02:03:53;98459.09;;;7.40;59.46
34081;BME280;20358;50.272;19.026;2024-03-06T02:07:00;98461.00;;;7.35;59.65
34081;BME280;20358;50.272;19.026;2024-03-06T02:10:10;98461.88;;;7.35;59.49
34081;BME280;20358;50.272;19.026;2024-03-06T02:13:16;98456.25;;;7.23;59.09
34081;BME280;20358;50.272;19.026;2024-03-06T02:16:24;98460.75;;;7.18;59.92
34081;BME280;20358;50.272;19.026;2024-03-06T02:19:38;98457.75;;;7.04;59.65
34081;BME280;20358;50.272;19.026;2024-03-06T02:22:48;98467.44;;;6.99;60.31
34081;BME280;20358;50.272;19.026;2024-03-06T02:25:54;98459.84;;;6.93;60.17
34081;BME280;20358;50.272;19.026;2024-03-06T02:29:01;98460.66;;;6.95;60.00
34081;BME280;20358;50.272;19.026;2024-03-06T02:32:08;98465.97;;;6.92;59.66
34081;BME280;20358;50.272;19.026;2024-03-06T02:35:15;98471.75;;;6.73;59.50
34081;BME280;20358;50.272;19.026;2024-03-06T02:38:24;98466.00;;;6.64;59.88
34081;BME280;20358;50.272;19.026;2024-03-06T02:41:31;98467.78;;;6.62;60.11
34081;BME280;20358;50.272;19.026;2024-03-06T02:44:37;98471.53;;;6.53;60.64
34081;BME280;20358;50.272;19.026;2024-03-06T02:47:45;98463.91;;;6.47;60.54
34081;BME280;20358;50.272;19.026;2024-03-06T02:50:52;98462.13;;;6.49;60.93
34081;BME280;20358;50.272;19.026;2024-03-06T02:54:01;98467.03;;;6.58;60.75
34081;BME280;20358;50.272;19.026;2024-03-06T02:57:07;98461.63;;;6.64;60.38
34081;BME280;20358;50.272;19.026;2024-03-06T03:00:15;98473.56;;;6.71;60.77
34081;BME280;20358;50.272;19.026;2024-03-06T03:03:21;98460.22;;;6.82;60.71
34081;BME280;20358;50.272;19.026;2024-03-06T03:06:28;98459.47;;;6.78;59.63
34081;BME280;20358;50.272;19.026;2024-03-06T03:09:36;98466.66;;;6.70;59.44
34081;BME280;20358;50.272;19.026;2024-03-06T03:12:43;98467.13;;;6.55;59.54
34081;BME280;20358;50.272;19.026;2024-03-06T03:15:50;98467.13;;;6.55;60.31
34081;BME280;20358;50.272;19.026;2024-03-06T03:18:57;98467.03;;;6.58;60.82
34081;BME280;20358;50.272;19.026;2024-03-06T03:22:03;98473.72;;;6.65;60.46
34081;BME280;20358;50.272;19.026;2024-03-06T03:25:13;98473.56;;;6.71;60.03
34081;BME280;20358;50.272;19.026;2024-03-06T03:28:19;98476.09;;;6.73;59.72
34081;BME280;20358;50.272;19.026;2024-03-06T03:31:25;98474.38;;;6.72;59.93
34081;BME280;20358;50.272;19.026;2024-03-06T03:34:33;98485.53;;;6.75;60.36
34081;BME280;20358;50.272;19.026;2024-03-06T03:37:40;98487.97;;;6.80;59.90
34081;BME280;20358;50.272;19.026;2024-03-06T03:40:48;98482.75;;;6.81;59.57
34081;BME280;20358;50.272;19.026;2024-03-06T03:43:55;98486.03;;;6.86;59.81
34081;BME280;20358;50.272;19.026;2024-03-06T03:47:01;98480.69;;;6.91;59.50
34081;BME280;20358;50.272;19.026;2024-03-06T03:50:09;98479.75;;;6.94;59.78
34081;BME280;20358;50.272;19.026;2024-03-06T03:53:15;98484.84;;;6.97;59.41
34081;BME280;20358;50.272;19.026;2024-03-06T03:56:24;98428.78;;;6.63;58.92
34081;BME280;20358;50.272;19.026;2024-03-06T03:59:30;98493.63;;;6.93;58.30
34081;BME280;20358;50.272;19.026;2024-03-06T04:02:37;98488.03;;;6.78;58.33
34081;BME280;20358;50.272;19.026;2024-03-06T04:05:43;98488.53;;;6.63;58.57
34081;BME280;20358;50.272;19.026;2024-03-06T04:08:50;98492.31;;;6.53;58.26
34081;BME280;20358;50.272;19.026;2024-03-06T04:11:59;98500.44;;;6.41;59.10
34081;BME280;20358;50.272;19.026;2024-03-06T04:15:06;98493.09;;;6.28;58.77
34081;BME280;20358;50.272;19.026;2024-03-06T04:18:12;98496.72;;;6.22;59.44
34081;BME280;20358;50.272;19.026;2024-03-06T04:21:20;98496.75;;;6.20;60.06
34081;BME280;20358;50.272;19.026;2024-03-06T04:24:26;98497.69;;;6.18;59.85
34081;BME280;20358;50.272;19.026;2024-03-06T04:27:35;98493.63;;;6.09;60.57
34081;BME280;20358;50.272;19.026;2024-03-06T04:30:41;98492.78;;;6.09;60.35
34081;BME280;20358;50.272;19.026;2024-03-06T04:33:47;98500.47;;;6.12;60.70
34081;BME280;20358;50.272;19.026;2024-03-06T04:36:53;98508.59;;;6.00;59.42
34081;BME280;20358;50.272;19.026;2024-03-06T04:40:00;98499.34;;;5.91;60.36
34081;BME280;20358;50.272;19.026;2024-03-06T04:43:13;98506.22;;;5.92;60.95
34081;BME280;20358;50.272;19.026;2024-03-06T04:46:20;98505.22;;;5.98;61.06
34081;BME280;20358;50.272;19.026;2024-03-06T04:49:25;98506.06;;;5.98;61.05
34081;BME280;20358;50.272;19.026;2024-03-06T04:52:32;98509.50;;;5.99;60.43
34081;BME280;20358;50.272;19.026;2024-03-06T04:55:38;98505.16;;;5.99;61.44
34081;BME280;20358;50.272;19.026;2024-03-06T04:58:47;98504.44;;;5.94;61.34
34081;BME280;20358;50.272;19.026;2024-03-06T05:01:54;98511.84;;;6.08;60.89
34081;BME280;20358;50.272;19.026;2024-03-06T05:05:01;98510.41;;;5.98;61.06
34081;BME280;20358;50.272;19.026;2024-03-06T05:08:21;98514.28;;;5.82;61.73
34081;BME280;20358;50.272;19.026;2024-03-06T05:11:41;98519.47;;;5.82;61.40
34081;BME280;20358;50.272;19.026;2024-03-06T05:15:05;98523.63;;;5.56;61.58
34081;BME280;20358;50.272;19.026;2024-03-06T05:18:26;98523.22;;;5.39;62.41
34081;BME280;20358;50.272;19.026;2024-03-06T05:21:46;98527.56;;;5.37;63.23
34081;BME280;20358;50.272;19.026;2024-03-06T05:25:06;98527.28;;;5.49;63.47
34081;BME280;20358;50.272;19.026;2024-03-06T05:28:26;98525.94;;;5.65;62.33
34081;BME280;20358;50.272;19.026;2024-03-06T05:31:49;98527.94;;;5.56;63.27
34081;BME280;20358;50.272;19.026;2024-03-06T05:35:09;98529.41;;;5.66;62.19
34081;BME280;20358;50.272;19.026;2024-03-06T05:38:32;98538.09;;;5.65;62.69
34081;BME280;20358;50.272;19.026;2024-03-06T05:41:54;98536.97;;;5.74;62.35
34081;BME280;20358;50.272;19.026;2024-03-06T05:45:15;98547.00;;;5.89;62.83
34081;BME280;20358;50.272;19.026;2024-03-06T05:48:37;98550.19;;;5.97;61.71
34081;BME280;20358;50.272;19.026;2024-03-06T05:51:58;98552.63;;;6.03;61.82
34081;BME280;20358;50.272;19.026;2024-03-06T05:55:19;98548.09;;;6.11;61.69
34081;BME280;20358;50.272;19.026;2024-03-06T05:58:39;98546.22;;;6.16;61.38
34081;BME280;20358;50.272;19.026;2024-03-06T06:01:49;98547.78;;;6.21;61.28
34081;BME280;20358;50.272;19.026;2024-03-06T06:04:59;98563.06;;;6.32;61.34
34081;BME280;20358;50.272;19.026;2024-03-06T06:08:24;98530.56;;;6.19;60.83
34081;BME280;20358;50.272;19.026;2024-03-06T06:11:31;98562.91;;;6.37;61.29
34081;BME280;20358;50.272;19.026;2024-03-06T06:14:37;98554.19;;;6.39;61.08
34081;BME280;20358;50.272;19.026;2024-03-06T06:17:44;98561.09;;;6.40;60.95
34081;BME280;20358;50.272;19.026;2024-03-06T06:20:53;98564.47;;;6.42;60.40
34081;BME280;20358;50.272;19.026;2024-03-06T06:24:00;98556.78;;;6.39;60.46
34081;BME280;20358;50.272;19.026;2024-03-06T06:27:06;98555.63;;;6.49;60.67
34081;BME280;20358;50.272;19.026;2024-03-06T06:30:13;98555.44;;;6.55;60.10
34081;BME280;20358;50.272;19.026;2024-03-06T06:33:19;98554.50;;;6.58;60.58
34081;BME280;20358;50.272;19.026;2024-03-06T06:36:29;98560.47;;;6.61;59.93
34081;BME280;20358;50.272;19.026;2024-03-06T06:39:35;98565.44;;;6.67;60.34
34081;BME280;20358;50.272;19.026;2024-03-06T06:42:45;98557.63;;;6.69;60.22
34081;BME280;20358;50.272;19.026;2024-03-06T06:45:53;98558.19;;;6.78;60.41
34081;BME280;20358;50.272;19.026;2024-03-06T06:49:01;98563.22;;;6.84;59.54
34081;BME280;20358;50.272;19.026;2024-03-06T06:52:09;98566.69;;;6.83;59.45
34081;BME280;20358;50.272;19.026;2024-03-06T06:55:16;98576.31;;;6.80;59.77
34081;BME280;20358;50.272;19.026;2024-03-06T06:58:25;98571.72;;;6.90;60.06
34081;BME280;20358;50.272;19.026;2024-03-06T07:01:32;98568.00;;;6.97;59.58
34081;BME280;20358;50.272;19.026;2024-03-06T07:04:38;98573.63;;;6.83;59.27
34081;BME280;20358;50.272;19.026;2024-03-06T07:07:48;98551.56;;;6.68;59.88
34081;BME280;20358;50.272;19.026;2024-03-06T07:10:56;98563.09;;;6.87;60.43
34081;BME280;20358;50.272;19.026;2024-03-06T07:14:03;98567.84;;;7.03;60.80
34081;BME280;20358;50.272;19.026;2024-03-06T07:17:09;98571.63;;;7.19;59.85
34081;BME280;20358;50.272;19.026;2024-03-06T07:20:16;98568.19;;;7.18;59.63
34081;BME280;20358;50.272;19.026;2024-03-06T07:23:24;98571.38;;;7.26;59.76
34081;BME280;20358;50.272;19.026;2024-03-06T07:26:32;98571.88;;;7.37;59.38
34081;BME280;20358;50.272;19.026;2024-03-06T07:29:39;98575.03;;;7.47;58.91
34081;BME280;20358;50.272;19.026;2024-03-06T07:32:46;98562.56;;;7.57;59.51
34081;BME280;20358;50.272;19.026;2024-03-06T07:35:52;98570.72;;;7.72;58.66
34081;BME280;20358;50.272;19.026;2024-03-06T07:39:02;98575.47;;;7.84;57.99
34081;BME280;20358;50.272;19.026;2024-03-06T07:42:10;98574.22;;;7.96;58.38
34081;BME280;20358;50.272;19.026;2024-03-06T07:45:18;98581.66;;;8.06;58.10
34081;BME280;20358;50.272;19.026;2024-03-06T07:48:25;98586.53;;;8.16;57.08
34081;BME280;20358;50.272;19.026;2024-03-06T07:51:32;98584.94;;;8.11;56.90
34081;BME280;20358;50.272;19.026;2024-03-06T07:54:41;98592.63;;;8.14;57.19
34081;BME280;20358;50.272;19.026;2024-03-06T07:57:47;98590.25;;;8.08;56.50
34081;BME280;20358;50.272;19.026;2024-03-06T08:00:53;98586.72;;;8.09;56.90
34081;BME280;20358;50.272;19.026;2024-03-06T08:04:00;98588.53;;;8.07;57.42
34081;BME280;20358;50.272;19.026;2024-03-06T08:07:06;98589.91;;;8.18;56.73
34081;BME280;20358;50.272;19.026;2024-03-06T08:10:15;98593.19;;;8.23;56.86
34081;BME280;20358;50.272;19.026;2024-03-06T08:13:22;98600.44;;;8.14;56.51
34081;BME280;20358;50.272;19.026;2024-03-06T08:16:28;98586.00;;;8.06;57.08
34081;BME280;20358;50.272;19.026;2024-03-06T08:19:38;98601.00;;;8.23;57.12
34081;BME280;20358;50.272;19.026;2024-03-06T08:22:45;98604.13;;;8.34;56.23
34081;BME280;20358;50.272;19.026;2024-03-06T08:25:55;98611.25;;;8.29;55.90
34081;BME280;20358;50.272;19.026;2024-03-06T08:29:03;98581.53;;;8.09;56.49
34081;BME280;20358;50.272;19.026;2024-03-06T08:32:09;98600.13;;;8.24;56.04
34081;BME280;20358;50.272;19.026;2024-03-06T08:35:17;98594.03;;;8.25;56.39
34081;BME280;20358;50.272;19.026;2024-03-06T08:38:24;98604.03;;;8.37;56.58
34081;BME280;20358;50.272;19.026;2024-03-06T08:41:34;98589.06;;;8.42;56.02
34081;BME280;20358;50.272;19.026;2024-03-06T08:44:40;98590.09;;;8.61;56.53
34081;BME280;20358;50.272;19.026;2024-03-06T08:47:47;98598.13;;;8.78;56.06
34081;BME280;20358;50.272;19.026;2024-03-06T08:50:56;98607.66;;;8.79;55.41
34081;BME280;20358;50.272;19.026;2024-03-06T08:54:03;98609.88;;;8.88;55.30
34081;BME280;20358;50.272;19.026;2024-03-06T08:57:16;98612.72;;;8.82;54.60
34081;BME280;20358;50.272;19.026;2024-03-06T09:00:24;98609.78;;;8.91;55.46
34081;BME280;20358;50.272;19.026;2024-03-06T09:03:30;98614.41;;;9.06;54.68
34081;BME280;20358;50.272;19.026;2024-03-06T09:06:37;98610.63;;;9.13;54.12
34081;BME280;20358;50.272;19.026;2024-03-06T09:09:43;98606.53;;;9.08;54.14
34081;BME280;20358;50.272;19.026;2024-03-06T09:12:53;98607.34;;;9.08;54.77
34081;BME280;20358;50.272;19.026;2024-03-06T09:15:59;98609.81;;;9.13;54.26
34081;BME280;20358;50.272;19.026;2024-03-06T09:19:06;98606.34;;;9.12;54.87
34081;BME280;20358;50.272;19.026;2024-03-06T09:22:12;98596.81;;;9.33;54.78
34081;BME280;20358;50.272;19.026;2024-03-06T09:25:18;98602.38;;;9.46;53.76
34081;BME280;20358;50.272;19.026;2024-03-06T09:28:30;98598.50;;;9.56;53.54
34081;BME280;20358;50.272;19.026;2024-03-06T09:31:37;98598.38;;;9.59;53.41
34081;BME280;20358;50.272;19.026;2024-03-06T09:34:42;98596.28;;;9.67;53.31
34081;BME280;20358;50.272;19.026;2024-03-06T09:37:49;98594.88;;;9.80;53.24
34081;BME280;20358;50.272;19.026;2024-03-06T09:40:56;98588.34;;;9.90;52.34
34081;BME280;20358;50.272;19.026;2024-03-06T09:44:05;98587.28;;;9.94;52.05
34081;BME280;20358;50.272;19.026;2024-03-06T09:47:13;98600.09;;;10.00;52.26
34081;BME280;20358;50.272;19.026;2024-03-06T09:50:24;98594.88;;;10.00;52.25
34081;BME280;20358;50.272;19.026;2024-03-06T09:53:31;98601.78;;;10.01;51.81
34081;BME280;20358;50.272;19.026;2024-03-06T09:56:38;98594.72;;;10.03;51.46
34081;BME280;20358;50.272;19.026;2024-03-06T09:59:46;98596.56;;;10.01;51.45
34081;BME280;20358;50.272;19.026;2024-03-06T10:02:57;98594.78;;;10.02;51.98
34081;BME280;20358;50.272;19.026;2024-03-06T10:06:06;98595.25;;;10.11;51.75
34081;BME280;20358;50.272;19.026;2024-03-06T10:09:17;98602.84;;;10.17;51.33
34081;BME280;20358;50.272;19.026;2024-03-06T10:12:23;98608.13;;;10.16;51.76
34081;BME280;20358;50.272;19.026;2024-03-06T10:15:36;98610.28;;;10.06;51.16
34081;BME280;20358;50.272;19.026;2024-03-06T10:18:43;98603.88;;;9.93;51.23
34081;BME280;20358;50.272;19.026;2024-03-06T10:21:59;98612.03;;;9.85;51.48
34081;BME280;20358;50.272;19.026;2024-03-06T10:25:05;98611.31;;;9.82;52.41
34081;BME280;20358;50.272;19.026;2024-03-06T10:28:12;98617.31;;;9.84;52.22
34081;BME280;20358;50.272;19.026;2024-03-06T10:31:29;98609.13;;;9.71;52.83
34081;BME280;20358;50.272;19.026;2024-03-06T10:34:37;98612.41;;;9.76;52.96
34081;BME280;20358;50.272;19.026;2024-03-06T10:37:45;98613.78;;;9.65;52.82
34081;BME280;20358;50.272;19.026;2024-03-06T10:40:54;98598.91;;;9.23;54.23
34081;BME280;20358;50.272;19.026;2024-03-06T10:44:03;98613.56;;;9.27;54.82
34081;BME280;20358;50.272;19.026;2024-03-06T10:47:15;98606.63;;;9.26;55.22
34081;BME280;20358;50.272;19.026;2024-03-06T10:50:24;98611.19;;;9.21;55.25
34081;BME280;20358;50.272;19.026;2024-03-06T10:53:32;98606.91;;;9.20;55.64
34081;BME280;20358;50.272;19.026;2024-03-06T10:56:40;98604.84;;;9.28;56.22
34081;BME280;20358;50.272;19.026;2024-03-06T10:59:48;98610.41;;;9.19;56.49
34081;BME280;20358;50.272;19.026;2024-03-06T11:02:57;98602.56;;;9.19;57.57
34081;BME280;20358;50.272;19.026;2024-03-06T11:06:07;98605.06;;;9.22;58.06
34081;BME280;20358;50.272;19.026;2024-03-06T11:09:14;98603.00;;;9.30;57.52
34081;BME280;20358;50.272;19.026;2024-03-06T11:12:35;98600.31;;;9.32;57.72
34081;BME280;20358;50.272;19.026;2024-03-06T11:15:42;98596.81;;;9.33;57.52
34081;BME280;20358;50.272;19.026;2024-03-06T11:19:05;98569.34;;;9.24;58.14
34081;BME280;20358;50.272;19.026;2024-03-06T11:22:12;98583.69;;;9.34;58.59
34081;BME280;20358;50.272;19.026;2024-03-06T11:29:19;98594.63;;;9.22;58.88
34081;BME280;20358;50.272;19.026;2024-03-06T11:32:26;98590.94;;;9.06;59.10
34081;BME280;20358;50.272;19.026;2024-03-06T11:35:34;98589.28;;;9.04;59.69
34081;BME280;20358;50.272;19.026;2024-03-06T11:38:43;98574.84;;;8.95;60.31
34081;BME280;20358;50.272;19.026;2024-03-06T11:41:52;98577.59;;;8.92;60.73
34081;BME280;20358;50.272;19.026;2024-03-06T11:44:59;98573.41;;;8.88;60.27
34081;BME280;20358;50.272;19.026;2024-03-06T11:48:07;98577.16;;;8.81;60.51
34081;BME280;20358;50.272;19.026;2024-03-06T11:51:23;98502.44;;;8.37;60.79
34081;BME280;20358;50.272;19.026;2024-03-06T11:54:30;98575.22;;;8.86;61.02
34081;BME280;20358;50.272;19.026;2024-03-06T11:57:38;98575.44;;;8.80;60.79
34081;BME280;20358;50.272;19.026;2024-03-06T12:00:44;98564.47;;;8.72;60.96
34081;BME280;20358;50.272;19.026;2024-03-06T12:03:52;98567.06;;;8.72;61.32
34081;BME280;20358;50.272;19.026;2024-03-06T12:07:01;98571.84;;;8.61;61.27
34081;BME280;20358;50.272;19.026;2024-03-06T12:10:10;98564.16;;;8.58;60.89
34081;BME280;20358;50.272;19.026;2024-03-06T12:13:16;98565.00;;;8.58;61.05
34081;BME280;20358;50.272;19.026;2024-03-06T12:16:24;98573.06;;;8.51;61.27
34081;BME280;20358;50.272;19.026;2024-03-06T12:19:32;98571.28;;;8.53;61.82
34081;BME280;20358;50.272;19.026;2024-03-06T12:22:48;98564.25;;;8.55;62.01
34081;BME280;20358;50.272;19.026;2024-03-06T12:26:06;98561.69;;;8.53;61.93
34081;BME280;20358;50.272;19.026;2024-03-06T12:29:18;98560.97;;;8.50;62.13
34081;BME280;20358;50.272;19.026;2024-03-06T12:32:24;98565.34;;;8.49;62.34
34081;BME280;20358;50.272;19.026;2024-03-06T12:35:33;98560.63;;;8.59;62.51
34081;BME280;20358;50.272;19.026;2024-03-06T12:38:42;98560.63;;;8.59;62.55
34081;BME280;20358;50.272;19.026;2024-03-06T12:41:49;98562.56;;;8.54;61.72
34081;BME280;20358;50.272;19.026;2024-03-06T12:44:55;98563.91;;;8.64;62.44
34081;BME280;20358;50.272;19.026;2024-03-06T12:48:03;98560.41;;;8.65;61.50
34081;BME280;20358;50.272;19.026;2024-03-06T12:51:10;98557.00;;;8.63;61.57
34081;BME280;20358;50.272;19.026;2024-03-06T12:54:19;98563.78;;;8.67;61.77
34081;BME280;20358;50.272;19.026;2024-03-06T12:57:25;98567.47;;;8.61;61.92
34081;BME280;20358;50.272;19.026;2024-03-06T13:00:32;98563.91;;;8.64;61.71
34081;BME280;20358;50.272;19.026;2024-03-06T13:03:38;98573.31;;;8.68;61.45
34081;BME280;20358;50.272;19.026;2024-03-06T13:06:45;98562.03;;;8.67;62.02
34081;BME280;20358;50.272;19.026;2024-03-06T13:09:54;98579.97;;;8.75;61.54
34081;BME280;20358;50.272;19.026;2024-03-06T13:13:03;98564.53;;;8.70;61.95
34081;BME280;20358;50.272;19.026;2024-03-06T13:16:09;98574.00;;;8.73;61.85
34081;BME280;20358;50.272;19.026;2024-03-06T13:19:16;98575.00;;;8.69;61.50
34081;BME280;20358;50.272;19.026;2024-03-06T13:22:22;98572.28;;;8.72;62.04
34081;BME280;20358;50.272;19.026;2024-03-06T13:25:31;98566.09;;;8.74;62.16
34081;BME280;20358;50.272;19.026;2024-03-06T13:28:38;98566.94;;;8.75;62.63
34081;BME280;20358;50.272;19.026;2024-03-06T13:31:44;98568.41;;;8.82;62.43
34081;BME280;20358;50.272;19.026;2024-03-06T13:34:50;98562.97;;;8.88;62.49
34081;BME280;20358;50.272;19.026;2024-03-06T13:37:58;98567.94;;;8.94;61.72
34081;BME280;20358;50.272;19.026;2024-03-06T13:41:08;98562.72;;;8.94;61.78
34081;BME280;20358;50.272;19.026;2024-03-06T13:44:15;98566.47;;;8.87;61.88
34081;BME280;20358;50.272;19.026;2024-03-06T13:47:21;98563.19;;;8.82;62.35
34081;BME280;20358;50.272;19.026;2024-03-06T13:50:27;98559.81;;;8.80;62.23
34081;BME280;20358;50.272;19.026;2024-03-06T13:53:33;98568.66;;;8.76;62.90
34081;BME280;20358;50.272;19.026;2024-03-06T13:56:43;98574.03;;;8.71;62.49
34081;BME280;20358;50.272;19.026;2024-03-06T13:59:49;98570.75;;;8.66;63.86
34081;BME280;20358;50.272;19.026;2024-03-06T14:02:56;98560.19;;;8.71;63.34
34081;BME280;20358;50.272;19.026;2024-03-06T14:06:02;98563.78;;;8.67;63.23
34081;BME280;20358;50.272;19.026;2024-03-06T14:09:10;98564.63;;;8.67;63.56
34081;BME280;20358;50.272;19.026;2024-03-06T14:12:19;98558.38;;;8.71;63.47
34081;BME280;20358;50.272;19.026;2024-03-06T14:15:26;98566.84;;;8.78;63.50
34081;BME280;20358;50.272;19.026;2024-03-06T14:18:32;98574.09;;;8.70;63.43
34081;BME280;20358;50.272;19.026;2024-03-06T14:21:39;98574.47;;;8.61;63.52
34081;BME280;20358;50.272;19.026;2024-03-06T14:24:45;98571.03;;;8.59;63.45
34081;BME280;20358;50.272;19.026;2024-03-06T14:27:55;98568.56;;;8.56;64.10
34081;BME280;20358;50.272;19.026;2024-03-06T14:31:01;98572.38;;;8.47;64.10
34081;BME280;20358;50.272;19.026;2024-03-06T14:34:07;98567.66;;;8.57;65.19
34081;BME280;20358;50.272;19.026;2024-03-06T14:37:13;98578.94;;;8.57;64.23
34081;BME280;20358;50.272;19.026;2024-03-06T14:40:20;98578.75;;;8.62;64.76
34081;BME280;20358;50.272;19.026;2024-03-06T14:43:29;98572.75;;;8.60;64.18
34081;BME280;20358;50.272;19.026;2024-03-06T14:46:37;98578.34;;;8.72;64.65
34081;BME280;20358;50.272;19.026;2024-03-06T14:49:44;98573.63;;;8.82;63.94
34081;BME280;20358;50.272;19.026;2024-03-06T14:52:51;98578.16;;;8.77;63.83
34081;BME280;20358;50.272;19.026;2024-03-06T14:55:57;98578.31;;;8.74;64.31
34081;BME280;20358;50.272;19.026;2024-03-06T14:59:08;98578.97;;;8.79;64.74
34081;BME280;20358;50.272;19.026;2024-03-06T15:02:14;98576.06;;;8.87;64.12
34081;BME280;20358;50.272;19.026;2024-03-06T15:05:21;98582.94;;;8.89;64.60
34081;BME280;20358;50.272;19.026;2024-03-06T15:08:27;98576.06;;;8.87;64.21
34081;BME280;20358;50.272;19.026;2024-03-06T15:11:34;98578.25;;;8.97;64.37
34081;BME280;20358;50.272;19.026;2024-03-06T15:14:42;98581.78;;;8.96;63.88
34081;BME280;20358;50.272;19.026;2024-03-06T15:17:59;98576.56;;;8.96;64.01
34081;BME280;20358;50.272;19.026;2024-03-06T15:21:05;98576.84;;;8.89;64.11
34081;BME280;20358;50.272;19.026;2024-03-06T15:24:12;98575.66;;;8.97;64.22
34081;BME280;20358;50.272;19.026;2024-03-06T15:27:18;98577.44;;;8.95;64.10
34081;BME280;20358;50.272;19.026;2024-03-06T15:30:28;98578.25;;;8.97;64.15
34081;BME280;20358;50.272;19.026;2024-03-06T15:33:36;98573.56;;;9.05;64.70
34081;BME280;20358;50.272;19.026;2024-03-06T15:36:43;98576.19;;;9.05;64.89
34081;BME280;20358;50.272;19.026;2024-03-06T15:39:49;98579.22;;;9.16;64.39
34081;BME280;20358;50.272;19.026;2024-03-06T15:42:56;98575.59;;;9.20;64.35
34081;BME280;20358;50.272;19.026;2024-03-06T15:46:05;98571.69;;;9.30;64.16
34081;BME280;20358;50.272;19.026;2024-03-06T15:49:19;98584.47;;;9.36;63.37
34081;BME280;20358;50.272;19.026;2024-03-06T15:52:27;98578.13;;;9.44;63.33
34081;BME280;20358;50.272;19.026;2024-03-06T15:55:34;98575.41;;;9.47;62.86
34081;BME280;20358;50.272;19.026;2024-03-06T15:58:40;98582.47;;;9.43;63.17
34081;BME280;20358;50.272;19.026;2024-03-06T16:01:49;98585.41;;;9.35;63.84
34081;BME280;20358;50.272;19.026;2024-03-06T16:04:55;98574.69;;;9.42;64.00
34081;BME280;20358;50.272;19.026;2024-03-06T16:08:02;98582.91;;;9.32;63.54
34081;BME280;20358;50.272;19.026;2024-03-06T16:11:09;98582.03;;;9.33;64.05
34081;BME280;20358;50.272;19.026;2024-03-06T16:14:15;98587.34;;;9.30;63.68
34081;BME280;20358;50.272;19.026;2024-03-06T16:17:24;98582.50;;;9.21;63.95
34081;BME280;20358;50.272;19.026;2024-03-06T16:20:31;98579.84;;;9.23;64.60
34081;BME280;20358;50.272;19.026;2024-03-06T16:23:37;98582.75;;;9.15;64.96
34081;BME280;20358;50.272;19.026;2024-03-06T16:26:44;98591.25;;;9.20;64.46
34081;BME280;20358;50.272;19.026;2024-03-06T16:29:50;98584.56;;;9.13;64.74
34081;BME280;20358;50.272;19.026;2024-03-06T16:32:59;98548.91;;;8.92;65.22
34081;BME280;20358;50.272;19.026;2024-03-06T16:36:06;98584.44;;;9.16;64.85
34081;BME280;20358;50.272;19.026;2024-03-06T16:39:13;98587.59;;;9.24;65.48
34081;BME280;20358;50.272;19.026;2024-03-06T16:42:19;98583.16;;;9.26;65.23